sensor_id;sensor_type;location;lat;lon;timestamp;P1;durP1;ratioP1;P2;durP2;ratioP2
53503;SDS011;39387;50.998;22.340;2022-11-15T00:00:10;34.80;;;12.98;;
53503;SDS011;39387;50.998;22.340;2022-11-15T00:02:58;36.58;;;12.82;;
53503;SDS011;39387;50.998;22.340;2022-11-15T00:05:25;34.35;;;13.95;;
53503;SDS011;39387;50.998;22.340;2022-11-15T00:07:54;38.53;;;14.13;;
53503;SDS011;39387;50.998;22.340;2022-11-15T00:10:23;30.10;;;12.18;;
53503;SDS011;39387;50.998;22.340;2022-11-15T00:12:51;33.92;;;13.13;;
53503;SDS011;39387;50.998;22.340;2022-11-15T00:15:18;35.90;;;13.63;;
53503;SDS011;39387;50.998;22.340;2022-11-15T00:17:48;32.10;;;11.32;;
53503;SDS011;39387;50.998;22.340;2022-11-15T00:20:16;38.63;;;12.77;;
53503;SDS011;39387;50.998;22.340;2022-11-15T00:22:44;33.65;;;12.63;;
53503;SDS011;39387;50.998;22.340;2022-11-15T00:25:13;30.40;;;11.50;;
53503;SDS011;39387;50.998;22.340;2022-11-15T00:27:40;36.42;;;13.48;;
53503;SDS011;39387;50.998;22.340;2022-11-15T00:30:08;25.58;;;10.63;;
53503;SDS011;39387;50.998;22.340;2022-11-15T00:32:36;31.63;;;10.75;;
53503;SDS011;39387;50.998;22.340;2022-11-15T00:35:04;27.45;;;10.40;;
53503;SDS011;39387;50.998;22.340;2022-11-15T00:37:32;28.08;;;10.15;;
53503;SDS011;39387;50.998;22.340;2022-11-15T00:39:59;27.58;;;10.45;;
53503;SDS011;39387;50.998;22.340;2022-11-15T00:42:28;29.38;;;10.38;;
53503;SDS011;39387;50.998;22.340;2022-11-15T00:44:56;27.08;;;9.43;;
53503;SDS011;39387;50.998;22.340;2022-11-15T00:47:23;27.13;;;10.63;;
53503;SDS011;39387;50.998;22.340;2022-11-15T00:49:51;30.13;;;10.18;;
53503;SDS011;39387;50.998;22.340;2022-11-15T00:52:18;23.98;;;9.55;;
53503;SDS011;39387;50.998;22.340;2022-11-15T00:54:48;32.63;;;10.80;;
53503;SDS011;39387;50.998;22.340;2022-11-15T00:57:16;33.75;;;12.35;;
53503;SDS011;39387;50.998;22.340;2022-11-15T00:59:45;30.05;;;10.23;;
53503;SDS011;39387;50.998;22.340;2022-11-15T01:02:12;33.33;;;10.85;;
53503;SDS011;39387;50.998;22.340;2022-11-15T01:04:40;34.33;;;12.98;;
53503;SDS011;39387;50.998;22.340;2022-11-15T01:07:08;37.60;;;11.90;;
53503;SDS011;39387;50.998;22.340;2022-11-15T01:09:35;28.40;;;10.02;;
53503;SDS011;39387;50.998;22.340;2022-11-15T01:12:03;28.25;;;10.38;;
53503;SDS011;39387;50.998;22.340;2022-11-15T01:14:31;25.77;;;9.68;;
53503;SDS011;39387;50.998;22.340;2022-11-15T01:17:00;27.25;;;9.85;;
53503;SDS011;39387;50.998;22.340;2022-11-15T01:19:28;25.00;;;9.15;;
53503;SDS011;39387;50.998;22.340;2022-11-15T01:21:55;23.92;;;8.93;;
53503;SDS011;39387;50.998;22.340;2022-11-15T01:24:23;24.30;;;9.43;;
53503;SDS011;39387;50.998;22.340;2022-11-15T01:26:51;23.55;;;9.68;;
53503;SDS011;39387;50.998;22.340;2022-11-15T01:29:18;25.17;;;8.95;;
53503;SDS011;39387;50.998;22.340;2022-11-15T01:31:46;23.27;;;9.07;;
53503;SDS011;39387;50.998;22.340;2022-11-15T01:34:15;30.77;;;9.88;;
53503;SDS011;39387;50.998;22.340;2022-11-15T01:36:42;30.02;;;9.15;;
53503;SDS011;39387;50.998;22.340;2022-11-15T01:39:10;25.90;;;10.07;;
53503;SDS011;39387;50.998;22.340;2022-11-15T01:41:37;24.55;;;9.05;;
53503;SDS011;39387;50.998;22.340;2022-11-15T01:47:09;28.58;;;9.80;;
53503;SDS011;39387;50.998;22.340;2022-11-15T01:49:44;28.08;;;9.73;;
53503;SDS011;39387;50.998;22.340;2022-11-15T01:52:17;23.38;;;8.18;;
53503;SDS011;39387;50.998;22.340;2022-11-15T01:54:46;22.65;;;8.85;;
53503;SDS011;39387;50.998;22.340;2022-11-15T01:57:14;27.00;;;10.68;;
53503;SDS011;39387;50.998;22.340;2022-11-15T01:59:42;27.13;;;9.50;;
53503;SDS011;39387;50.998;22.340;2022-11-15T02:02:10;22.17;;;8.60;;
53503;SDS011;39387;50.998;22.340;2022-11-15T02:04:40;25.00;;;8.70;;
53503;SDS011;39387;50.998;22.340;2022-11-15T02:09:41;27.75;;;9.40;;
53503;SDS011;39387;50.998;22.340;2022-11-15T02:12:09;30.02;;;9.70;;
53503;SDS011;39387;50.998;22.340;2022-11-15T02:14:38;28.50;;;8.80;;
53503;SDS011;39387;50.998;22.340;2022-11-15T02:17:11;28.73;;;9.43;;
53503;SDS011;39387;50.998;22.340;2022-11-15T02:19:59;28.08;;;9.55;;
53503;SDS011;39387;50.998;22.340;2022-11-15T02:22:58;26.35;;;9.63;;
53503;SDS011;39387;50.998;22.340;2022-11-15T02:25:37;28.05;;;9.57;;
53503;SDS011;39387;50.998;22.340;2022-11-15T02:31:04;29.95;;;9.68;;
53503;SDS011;39387;50.998;22.340;2022-11-15T02:33:35;26.13;;;8.70;;
53503;SDS011;39387;50.998;22.340;2022-11-15T02:36:09;28.70;;;9.50;;
53503;SDS011;39387;50.998;22.340;2022-11-15T02:41:09;34.40;;;10.18;;
53503;SDS011;39387;50.998;22.340;2022-11-15T02:43:38;26.95;;;9.68;;
53503;SDS011;39387;50.998;22.340;2022-11-15T02:46:24;32.38;;;9.95;;
53503;SDS011;39387;50.998;22.340;2022-11-15T02:49:09;26.50;;;8.10;;
53503;SDS011;39387;50.998;22.340;2022-11-15T02:51:38;23.20;;;8.80;;
53503;SDS011;39387;50.998;22.340;2022-11-15T02:54:07;30.80;;;9.05;;
53503;SDS011;39387;50.998;22.340;2022-11-15T02:56:36;26.35;;;9.95;;
53503;SDS011;39387;50.998;22.340;2022-11-15T02:59:08;32.05;;;9.05;;
53503;SDS011;39387;50.998;22.340;2022-11-15T03:01:49;26.67;;;10.23;;
53503;SDS011;39387;50.998;22.340;2022-11-15T03:04:23;33.13;;;10.63;;
53503;SDS011;39387;50.998;22.340;2022-11-15T03:06:59;25.08;;;9.20;;
53503;SDS011;39387;50.998;22.340;2022-11-15T03:09:30;32.13;;;10.45;;
53503;SDS011;39387;50.998;22.340;2022-11-15T03:12:03;35.10;;;10.57;;
53503;SDS011;39387;50.998;22.340;2022-11-15T03:14:33;30.92;;;11.10;;
53503;SDS011;39387;50.998;22.340;2022-11-15T03:17:05;32.22;;;10.45;;
53503;SDS011;39387;50.998;22.340;2022-11-15T03:19:38;28.33;;;8.88;;
53503;SDS011;39387;50.998;22.340;2022-11-15T03:22:12;25.00;;;9.77;;
53503;SDS011;39387;50.998;22.340;2022-11-15T03:24:42;28.45;;;10.40;;
53503;SDS011;39387;50.998;22.340;2022-11-15T03:27:11;27.25;;;9.65;;
53503;SDS011;39387;50.998;22.340;2022-11-15T03:29:41;30.23;;;9.63;;
53503;SDS011;39387;50.998;22.340;2022-11-15T03:32:14;34.72;;;10.45;;
53503;SDS011;39387;50.998;22.340;2022-11-15T03:34:44;28.17;;;9.85;;
53503;SDS011;39387;50.998;22.340;2022-11-15T03:37:15;32.17;;;10.80;;
53503;SDS011;39387;50.998;22.340;2022-11-15T03:39:43;22.55;;;8.23;;
53503;SDS011;39387;50.998;22.340;2022-11-15T03:42:13;27.92;;;8.50;;
53503;SDS011;39387;50.998;22.340;2022-11-15T03:44:49;34.60;;;9.48;;
53503;SDS011;39387;50.998;22.340;2022-11-15T03:47:21;28.67;;;9.30;;
53503;SDS011;39387;50.998;22.340;2022-11-15T03:49:52;31.60;;;9.38;;
53503;SDS011;39387;50.998;22.340;2022-11-15T03:52:20;30.38;;;9.43;;
53503;SDS011;39387;50.998;22.340;2022-11-15T03:54:52;26.23;;;8.80;;
53503;SDS011;39387;50.998;22.340;2022-11-15T03:57:21;23.33;;;8.52;;
53503;SDS011;39387;50.998;22.340;2022-11-15T03:59:49;29.83;;;10.38;;
53503;SDS011;39387;50.998;22.340;2022-11-15T04:02:16;27.63;;;8.68;;
53503;SDS011;39387;50.998;22.340;2022-11-15T04:04:45;21.08;;;8.23;;
53503;SDS011;39387;50.998;22.340;2022-11-15T04:07:13;30.98;;;9.05;;
53503;SDS011;39387;50.998;22.340;2022-11-15T04:09:40;22.67;;;8.27;;
53503;SDS011;39387;50.998;22.340;2022-11-15T04:12:22;21.95;;;7.90;;
53503;SDS011;39387;50.998;22.340;2022-11-15T04:14:56;21.02;;;7.72;;
53503;SDS011;39387;50.998;22.340;2022-11-15T04:17:35;18.77;;;8.05;;
53503;SDS011;39387;50.998;22.340;2022-11-15T04:20:06;19.13;;;7.53;;
53503;SDS011;39387;50.998;22.340;2022-11-15T04:22:53;22.98;;;7.82;;
53503;SDS011;39387;50.998;22.340;2022-11-15T04:25:38;22.83;;;7.93;;
53503;SDS011;39387;50.998;22.340;2022-11-15T04:28:06;18.58;;;6.68;;
53503;SDS011;39387;50.998;22.340;2022-11-15T04:30:33;19.67;;;8.75;;
53503;SDS011;39387;50.998;22.340;2022-11-15T04:33:01;20.00;;;7.53;;
53503;SDS011;39387;50.998;22.340;2022-11-15T04:35:30;24.60;;;9.30;;
53503;SDS011;39387;50.998;22.340;2022-11-15T04:37:58;24.85;;;8.57;;
53503;SDS011;39387;50.998;22.340;2022-11-15T04:40:24;22.02;;;7.70;;
53503;SDS011;39387;50.998;22.340;2022-11-15T04:42:52;22.77;;;7.72;;
53503;SDS011;39387;50.998;22.340;2022-11-15T04:45:19;21.88;;;6.55;;
53503;SDS011;39387;50.998;22.340;2022-11-15T04:47:47;20.90;;;7.82;;
53503;SDS011;39387;50.998;22.340;2022-11-15T04:50:15;20.45;;;7.13;;
53503;SDS011;39387;50.998;22.340;2022-11-15T04:52:50;23.20;;;7.45;;
53503;SDS011;39387;50.998;22.340;2022-11-15T04:55:18;20.58;;;7.72;;
53503;SDS011;39387;50.998;22.340;2022-11-15T04:57:46;22.95;;;7.82;;
53503;SDS011;39387;50.998;22.340;2022-11-15T05:00:14;21.92;;;7.13;;
53503;SDS011;39387;50.998;22.340;2022-11-15T05:02:43;20.90;;;7.28;;
53503;SDS011;39387;50.998;22.340;2022-11-15T05:05:40;16.73;;;6.22;;
53503;SDS011;39387;50.998;22.340;2022-11-15T05:08:09;23.05;;;7.35;;
53503;SDS011;39387;50.998;22.340;2022-11-15T05:10:36;24.55;;;8.50;;
53503;SDS011;39387;50.998;22.340;2022-11-15T05:13:03;23.08;;;7.53;;
53503;SDS011;39387;50.998;22.340;2022-11-15T05:15:31;21.45;;;7.55;;
53503;SDS011;39387;50.998;22.340;2022-11-15T05:17:58;20.40;;;7.78;;
53503;SDS011;39387;50.998;22.340;2022-11-15T05:20:26;21.63;;;7.72;;
53503;SDS011;39387;50.998;22.340;2022-11-15T05:22:55;23.20;;;7.45;;
53503;SDS011;39387;50.998;22.340;2022-11-15T05:25:24;22.45;;;7.93;;
53503;SDS011;39387;50.998;22.340;2022-11-15T05:27:52;21.85;;;7.43;;
53503;SDS011;39387;50.998;22.340;2022-11-15T05:30:19;22.20;;;9.20;;
53503;SDS011;39387;50.998;22.340;2022-11-15T05:32:47;22.23;;;7.53;;
53503;SDS011;39387;50.998;22.340;2022-11-15T05:35:17;22.98;;;8.30;;
53503;SDS011;39387;50.998;22.340;2022-11-15T05:37:47;22.13;;;7.82;;
53503;SDS011;39387;50.998;22.340;2022-11-15T05:40:15;22.38;;;8.43;;
53503;SDS011;39387;50.998;22.340;2022-11-15T05:42:44;22.35;;;7.18;;
53503;SDS011;39387;50.998;22.340;2022-11-15T05:45:12;17.77;;;6.72;;
53503;SDS011;39387;50.998;22.340;2022-11-15T05:47:40;23.73;;;7.82;;
53503;SDS011;39387;50.998;22.340;2022-11-15T05:50:08;19.25;;;7.28;;
53503;SDS011;39387;50.998;22.340;2022-11-15T05:55:06;17.00;;;6.18;;
53503;SDS011;39387;50.998;22.340;2022-11-15T05:57:35;21.75;;;7.72;;
53503;SDS011;39387;50.998;22.340;2022-11-15T06:00:04;19.40;;;6.20;;
53503;SDS011;39387;50.998;22.340;2022-11-15T06:02:33;17.50;;;7.35;;
53503;SDS011;39387;50.998;22.340;2022-11-15T06:05:01;17.38;;;7.22;;
53503;SDS011;39387;50.998;22.340;2022-11-15T06:07:29;21.50;;;7.18;;
53503;SDS011;39387;50.998;22.340;2022-11-15T06:09:56;20.35;;;7.32;;
53503;SDS011;39387;50.998;22.340;2022-11-15T06:12:24;17.15;;;6.93;;
53503;SDS011;39387;50.998;22.340;2022-11-15T06:14:51;19.48;;;7.03;;
53503;SDS011;39387;50.998;22.340;2022-11-15T06:17:20;16.92;;;6.75;;
53503;SDS011;39387;50.998;22.340;2022-11-15T06:19:47;18.10;;;6.53;;
53503;SDS011;39387;50.998;22.340;2022-11-15T06:22:15;16.52;;;7.00;;
53503;SDS011;39387;50.998;22.340;2022-11-15T06:24:42;20.80;;;7.22;;
53503;SDS011;39387;50.998;22.340;2022-11-15T06:27:10;16.80;;;7.13;;
53503;SDS011;39387;50.998;22.340;2022-11-15T06:29:38;15.82;;;7.15;;
53503;SDS011;39387;50.998;22.340;2022-11-15T06:32:05;17.25;;;6.68;;
53503;SDS011;39387;50.998;22.340;2022-11-15T06:34:34;15.23;;;6.20;;
53503;SDS011;39387;50.998;22.340;2022-11-15T06:37:05;16.65;;;5.85;;
53503;SDS011;39387;50.998;22.340;2022-11-15T06:39:32;15.55;;;6.22;;
53503;SDS011;39387;50.998;22.340;2022-11-15T06:42:00;15.48;;;6.43;;
53503;SDS011;39387;50.998;22.340;2022-11-15T06:44:27;13.82;;;5.90;;
53503;SDS011;39387;50.998;22.340;2022-11-15T06:46:55;14.75;;;5.32;;
53503;SDS011;39387;50.998;22.340;2022-11-15T06:49:22;11.57;;;5.57;;
53503;SDS011;39387;50.998;22.340;2022-11-15T06:51:51;14.18;;;6.40;;
53503;SDS011;39387;50.998;22.340;2022-11-15T06:54:18;15.35;;;6.53;;
53503;SDS011;39387;50.998;22.340;2022-11-15T06:56:46;11.65;;;5.40;;
53503;SDS011;39387;50.998;22.340;2022-11-15T06:59:13;16.42;;;6.80;;
53503;SDS011;39387;50.998;22.340;2022-11-15T07:01:41;12.15;;;5.22;;
53503;SDS011;39387;50.998;22.340;2022-11-15T07:04:08;12.25;;;6.18;;
53503;SDS011;39387;50.998;22.340;2022-11-15T07:06:36;13.77;;;5.57;;
53503;SDS011;39387;50.998;22.340;2022-11-15T07:09:05;12.10;;;5.57;;
53503;SDS011;39387;50.998;22.340;2022-11-15T07:11:32;14.65;;;6.13;;
53503;SDS011;39387;50.998;22.340;2022-11-15T07:13:59;12.90;;;5.72;;
53503;SDS011;39387;50.998;22.340;2022-11-15T07:16:28;13.98;;;6.30;;
53503;SDS011;39387;50.998;22.340;2022-11-15T07:18:55;12.38;;;5.05;;
53503;SDS011;39387;50.998;22.340;2022-11-15T07:21:22;11.85;;;5.28;;
53503;SDS011;39387;50.998;22.340;2022-11-15T07:23:50;10.77;;;4.82;;
53503;SDS011;39387;50.998;22.340;2022-11-15T07:26:19;13.55;;;5.65;;
53503;SDS011;39387;50.998;22.340;2022-11-15T07:28:46;12.05;;;5.38;;
53503;SDS011;39387;50.998;22.340;2022-11-15T07:31:14;13.02;;;5.80;;
53503;SDS011;39387;50.998;22.340;2022-11-15T07:33:42;14.35;;;6.05;;
53503;SDS011;39387;50.998;22.340;2022-11-15T07:36:09;12.55;;;5.40;;
53503;SDS011;39387;50.998;22.340;2022-11-15T07:38:37;12.15;;;5.80;;
53503;SDS011;39387;50.998;22.340;2022-11-15T07:41:05;12.30;;;4.22;;
53503;SDS011;39387;50.998;22.340;2022-11-15T07:43:34;13.52;;;6.10;;
53503;SDS011;39387;50.998;22.340;2022-11-15T07:46:04;10.75;;;5.18;;
53503;SDS011;39387;50.998;22.340;2022-11-15T07:48:34;13.98;;;6.10;;
53503;SDS011;39387;50.998;22.340;2022-11-15T07:51:02;10.32;;;5.63;;
53503;SDS011;39387;50.998;22.340;2022-11-15T07:53:29;12.45;;;5.50;;
53503;SDS011;39387;50.998;22.340;2022-11-15T07:55:57;11.07;;;5.53;;
53503;SDS011;39387;50.998;22.340;2022-11-15T07:58:24;11.45;;;5.60;;
53503;SDS011;39387;50.998;22.340;2022-11-15T08:00:53;10.65;;;5.63;;
53503;SDS011;39387;50.998;22.340;2022-11-15T08:03:20;10.10;;;5.47;;
53503;SDS011;39387;50.998;22.340;2022-11-15T08:05:49;12.70;;;5.68;;
53503;SDS011;39387;50.998;22.340;2022-11-15T08:08:17;10.00;;;5.10;;
53503;SDS011;39387;50.998;22.340;2022-11-15T08:10:45;11.15;;;6.43;;
53503;SDS011;39387;50.998;22.340;2022-11-15T08:13:12;12.98;;;5.80;;
53503;SDS011;39387;50.998;22.340;2022-11-15T08:15:40;11.10;;;5.68;;
53503;SDS011;39387;50.998;22.340;2022-11-15T08:18:10;11.18;;;5.22;;
53503;SDS011;39387;50.998;22.340;2022-11-15T08:20:40;12.98;;;5.15;;
53503;SDS011;39387;50.998;22.340;2022-11-15T08:23:08;11.48;;;5.63;;
53503;SDS011;39387;50.998;22.340;2022-11-15T08:25:37;14.50;;;5.60;;
53503;SDS011;39387;50.998;22.340;2022-11-15T08:28:05;11.07;;;5.43;;
53503;SDS011;39387;50.998;22.340;2022-11-15T08:30:35;12.25;;;6.20;;
53503;SDS011;39387;50.998;22.340;2022-11-15T08:33:04;11.90;;;5.78;;
53503;SDS011;39387;50.998;22.340;2022-11-15T08:35:33;13.98;;;5.72;;
53503;SDS011;39387;50.998;22.340;2022-11-15T08:38:00;9.80;;;5.80;;
53503;SDS011;39387;50.998;22.340;2022-11-15T08:40:28;10.38;;;5.47;;
53503;SDS011;39387;50.998;22.340;2022-11-15T08:42:55;11.75;;;5.85;;
53503;SDS011;39387;50.998;22.340;2022-11-15T08:45:24;12.65;;;5.63;;
53503;SDS011;39387;50.998;22.340;2022-11-15T08:47:51;11.52;;;5.75;;
53503;SDS011;39387;50.998;22.340;2022-11-15T08:50:19;10.57;;;5.88;;
53503;SDS011;39387;50.998;22.340;2022-11-15T08:52:51;13.05;;;6.43;;
53503;SDS011;39387;50.998;22.340;2022-11-15T08:55:18;9.35;;;5.47;;
53503;SDS011;39387;50.998;22.340;2022-11-15T08:57:45;10.68;;;6.13;;
53503;SDS011;39387;50.998;22.340;2022-11-15T09:00:13;11.38;;;5.80;;
53503;SDS011;39387;50.998;22.340;2022-11-15T09:02:41;12.35;;;6.45;;
53503;SDS011;39387;50.998;22.340;2022-11-15T09:05:09;12.85;;;6.70;;
53503;SDS011;39387;50.998;22.340;2022-11-15T09:07:36;14.40;;;7.10;;
53503;SDS011;39387;50.998;22.340;2022-11-15T09:10:06;14.90;;;7.00;;
53503;SDS011;39387;50.998;22.340;2022-11-15T09:12:33;14.75;;;7.00;;
53503;SDS011;39387;50.998;22.340;2022-11-15T09:15:01;16.25;;;7.75;;
53503;SDS011;39387;50.998;22.340;2022-11-15T09:17:29;15.60;;;7.30;;
53503;SDS011;39387;50.998;22.340;2022-11-15T09:19:56;13.60;;;6.88;;
53503;SDS011;39387;50.998;22.340;2022-11-15T09:22:24;12.57;;;6.15;;
53503;SDS011;39387;50.998;22.340;2022-11-15T09:24:51;15.52;;;7.47;;
53503;SDS011;39387;50.998;22.340;2022-11-15T09:27:20;15.15;;;7.90;;
53503;SDS011;39387;50.998;22.340;2022-11-15T09:29:47;15.25;;;7.45;;
53503;SDS011;39387;50.998;22.340;2022-11-15T09:32:15;12.52;;;6.40;;
53503;SDS011;39387;50.998;22.340;2022-11-15T09:34:42;13.52;;;7.70;;
53503;SDS011;39387;50.998;22.340;2022-11-15T09:37:09;13.52;;;6.85;;
53503;SDS011;39387;50.998;22.340;2022-11-15T09:39:38;14.80;;;7.22;;
53503;SDS011;39387;50.998;22.340;2022-11-15T09:42:09;16.45;;;7.63;;
53503;SDS011;39387;50.998;22.340;2022-11-15T09:44:56;12.90;;;6.15;;
53503;SDS011;39387;50.998;22.340;2022-11-15T09:47:35;14.05;;;8.27;;
53503;SDS011;39387;50.998;22.340;2022-11-15T09:50:21;19.85;;;10.15;;
53503;SDS011;39387;50.998;22.340;2022-11-15T09:52:57;23.15;;;10.07;;
53503;SDS011;39387;50.998;22.340;2022-11-15T09:55:29;15.75;;;7.97;;
53503;SDS011;39387;50.998;22.340;2022-11-15T09:58:03;14.02;;;6.70;;
53503;SDS011;39387;50.998;22.340;2022-11-15T10:00:37;12.98;;;7.00;;
53503;SDS011;39387;50.998;22.340;2022-11-15T10:03:10;17.00;;;8.70;;
53503;SDS011;39387;50.998;22.340;2022-11-15T10:05:41;18.65;;;8.60;;
53503;SDS011;39387;50.998;22.340;2022-11-15T10:08:13;15.77;;;8.60;;
53503;SDS011;39387;50.998;22.340;2022-11-15T10:10:51;20.70;;;10.38;;
53503;SDS011;39387;50.998;22.340;2022-11-15T10:13:28;19.88;;;10.60;;
53503;SDS011;39387;50.998;22.340;2022-11-15T10:16:00;22.30;;;11.68;;
53503;SDS011;39387;50.998;22.340;2022-11-15T10:18:35;20.00;;;10.65;;
53503;SDS011;39387;50.998;22.340;2022-11-15T10:21:11;21.67;;;11.85;;
53503;SDS011;39387;50.998;22.340;2022-11-15T10:23:42;19.77;;;10.95;;
53503;SDS011;39387;50.998;22.340;2022-11-15T10:26:11;22.13;;;12.45;;
53503;SDS011;39387;50.998;22.340;2022-11-15T10:28:41;21.73;;;11.95;;
53503;SDS011;39387;50.998;22.340;2022-11-15T10:31:20;28.33;;;14.57;;
53503;SDS011;39387;50.998;22.340;2022-11-15T10:33:49;18.25;;;9.98;;
53503;SDS011;39387;50.998;22.340;2022-11-15T10:36:19;18.98;;;10.27;;
53503;SDS011;39387;50.998;22.340;2022-11-15T10:38:56;20.30;;;10.27;;
53503;SDS011;39387;50.998;22.340;2022-11-15T10:41:32;17.63;;;9.40;;
53503;SDS011;39387;50.998;22.340;2022-11-15T10:44:09;17.00;;;10.43;;
53503;SDS011;39387;50.998;22.340;2022-11-15T10:46:40;17.65;;;9.48;;
53503;SDS011;39387;50.998;22.340;2022-11-15T10:49:15;17.40;;;9.73;;
53503;SDS011;39387;50.998;22.340;2022-11-15T10:51:45;18.13;;;9.00;;
53503;SDS011;39387;50.998;22.340;2022-11-15T10:54:14;18.05;;;9.20;;
53503;SDS011;39387;50.998;22.340;2022-11-15T10:56:49;16.98;;;9.38;;
53503;SDS011;39387;50.998;22.340;2022-11-15T10:59:21;18.50;;;9.75;;
53503;SDS011;39387;50.998;22.340;2022-11-15T11:01:51;17.10;;;9.65;;
53503;SDS011;39387;50.998;22.340;2022-11-15T11:04:19;16.50;;;9.35;;
53503;SDS011;39387;50.998;22.340;2022-11-15T11:06:47;16.27;;;9.40;;
53503;SDS011;39387;50.998;22.340;2022-11-15T11:12:01;15.05;;;8.32;;
53503;SDS011;39387;50.998;22.340;2022-11-15T11:14:32;18.60;;;9.55;;
53503;SDS011;39387;50.998;22.340;2022-11-15T11:17:03;22.13;;;11.07;;
53503;SDS011;39387;50.998;22.340;2022-11-15T11:19:39;26.35;;;12.93;;
53503;SDS011;39387;50.998;22.340;2022-11-15T11:22:32;26.35;;;13.95;;
53503;SDS011;39387;50.998;22.340;2022-11-15T11:25:04;23.17;;;12.85;;
53503;SDS011;39387;50.998;22.340;2022-11-15T11:27:42;22.98;;;11.75;;
53503;SDS011;39387;50.998;22.340;2022-11-15T11:30:14;20.33;;;11.93;;
53503;SDS011;39387;50.998;22.340;2022-11-15T11:35:34;21.77;;;11.40;;
53503;SDS011;39387;50.998;22.340;2022-11-15T11:38:10;21.30;;;11.02;;
53503;SDS011;39387;50.998;22.340;2022-11-15T11:40:49;22.13;;;11.75;;
53503;SDS011;39387;50.998;22.340;2022-11-15T11:43:23;24.55;;;13.10;;
53503;SDS011;39387;50.998;22.340;2022-11-15T11:46:08;26.42;;;13.75;;
53503;SDS011;39387;50.998;22.340;2022-11-15T11:48:42;27.00;;;13.90;;
53503;SDS011;39387;50.998;22.340;2022-11-15T11:51:12;24.52;;;13.52;;
53503;SDS011;39387;50.998;22.340;2022-11-15T11:53:45;23.67;;;13.52;;
53503;SDS011;39387;50.998;22.340;2022-11-15T11:56:18;24.20;;;12.40;;
53503;SDS011;39387;50.998;22.340;2022-11-15T11:58:48;21.80;;;10.77;;
53503;SDS011;39387;50.998;22.340;2022-11-15T12:01:20;20.85;;;11.57;;
53503;SDS011;39387;50.998;22.340;2022-11-15T12:03:52;19.30;;;10.75;;
53503;SDS011;39387;50.998;22.340;2022-11-15T12:06:27;21.80;;;11.27;;
53503;SDS011;39387;50.998;22.340;2022-11-15T12:08:58;21.88;;;10.90;;
53503;SDS011;39387;50.998;22.340;2022-11-15T12:11:29;24.30;;;12.45;;
53503;SDS011;39387;50.998;22.340;2022-11-15T12:14:03;23.05;;;11.73;;
53503;SDS011;39387;50.998;22.340;2022-11-15T12:16:45;20.45;;;11.48;;
53503;SDS011;39387;50.998;22.340;2022-11-15T12:19:13;21.48;;;10.75;;
53503;SDS011;39387;50.998;22.340;2022-11-15T12:21:42;21.45;;;10.57;;
53503;SDS011;39387;50.998;22.340;2022-11-15T12:24:13;20.13;;;10.50;;
53503;SDS011;39387;50.998;22.340;2022-11-15T12:26:46;20.60;;;10.38;;
53503;SDS011;39387;50.998;22.340;2022-11-15T12:29:16;19.52;;;9.82;;
53503;SDS011;39387;50.998;22.340;2022-11-15T12:31:50;17.48;;;9.52;;
53503;SDS011;39387;50.998;22.340;2022-11-15T12:34:35;20.73;;;9.60;;
53503;SDS011;39387;50.998;22.340;2022-11-15T12:40:04;18.65;;;9.75;;
53503;SDS011;39387;50.998;22.340;2022-11-15T12:46:01;22.88;;;10.13;;
53503;SDS011;39387;50.998;22.340;2022-11-15T12:48:48;22.75;;;11.02;;
53503;SDS011;39387;50.998;22.340;2022-11-15T12:51:19;19.08;;;9.98;;
53503;SDS011;39387;50.998;22.340;2022-11-15T12:53:47;18.83;;;9.25;;
53503;SDS011;39387;50.998;22.340;2022-11-15T12:56:21;21.77;;;10.55;;
53503;SDS011;39387;50.998;22.340;2022-11-15T12:58:51;20.15;;;9.90;;
53503;SDS011;39387;50.998;22.340;2022-11-15T13:04:27;18.65;;;9.70;;
53503;SDS011;39387;50.998;22.340;2022-11-15T13:06:58;21.30;;;11.50;;
53503;SDS011;39387;50.998;22.340;2022-11-15T13:18:28;29.10;;;13.02;;
53503;SDS011;39387;50.998;22.340;2022-11-15T13:21:05;31.05;;;13.40;;
53503;SDS011;39387;50.998;22.340;2022-11-15T13:24:03;34.55;;;15.93;;
53503;SDS011;39387;50.998;22.340;2022-11-15T13:26:30;34.88;;;18.48;;
53503;SDS011;39387;50.998;22.340;2022-11-15T13:28:58;33.47;;;17.20;;
53503;SDS011;39387;50.998;22.340;2022-11-15T13:31:30;36.78;;;16.98;;
53503;SDS011;39387;50.998;22.340;2022-11-15T13:34:12;28.45;;;15.38;;
53503;SDS011;39387;50.998;22.340;2022-11-15T13:36:54;35.08;;;16.65;;
53503;SDS011;39387;50.998;22.340;2022-11-15T13:39:28;31.35;;;15.10;;
53503;SDS011;39387;50.998;22.340;2022-11-15T13:41:57;29.13;;;15.18;;
53503;SDS011;39387;50.998;22.340;2022-11-15T13:44:26;29.65;;;15.55;;
53503;SDS011;39387;50.998;22.340;2022-11-15T13:47:00;30.48;;;15.45;;
53503;SDS011;39387;50.998;22.340;2022-11-15T13:49:30;35.08;;;17.05;;
53503;SDS011;39387;50.998;22.340;2022-11-15T13:51:59;30.33;;;16.85;;
53503;SDS011;39387;50.998;22.340;2022-11-15T13:54:28;31.47;;;16.43;;
53503;SDS011;39387;50.998;22.340;2022-11-15T13:56:58;31.77;;;16.40;;
53503;SDS011;39387;50.998;22.340;2022-11-15T13:59:28;30.17;;;15.25;;
53503;SDS011;39387;50.998;22.340;2022-11-15T14:01:57;30.73;;;14.98;;
53503;SDS011;39387;50.998;22.340;2022-11-15T14:04:27;29.97;;;15.67;;
53503;SDS011;39387;50.998;22.340;2022-11-15T14:07:00;25.50;;;14.00;;
53503;SDS011;39387;50.998;22.340;2022-11-15T14:09:30;25.48;;;13.27;;
53503;SDS011;39387;50.998;22.340;2022-11-15T14:12:02;26.10;;;13.90;;
53503;SDS011;39387;50.998;22.340;2022-11-15T14:14:50;27.33;;;13.68;;
53503;SDS011;39387;50.998;22.340;2022-11-15T14:17:19;30.63;;;14.85;;
53503;SDS011;39387;50.998;22.340;2022-11-15T14:19:49;28.55;;;14.45;;
53503;SDS011;39387;50.998;22.340;2022-11-15T14:22:19;26.65;;;14.23;;
53503;SDS011;39387;50.998;22.340;2022-11-15T14:27:32;27.40;;;14.05;;
53503;SDS011;39387;50.998;22.340;2022-11-15T14:30:00;27.33;;;14.93;;
53503;SDS011;39387;50.998;22.340;2022-11-15T14:32:27;25.88;;;13.23;;
53503;SDS011;39387;50.998;22.340;2022-11-15T14:34:57;28.33;;;14.13;;
53503;SDS011;39387;50.998;22.340;2022-11-15T14:37:27;24.13;;;12.95;;
53503;SDS011;39387;50.998;22.340;2022-11-15T14:39:57;27.75;;;14.27;;
53503;SDS011;39387;50.998;22.340;2022-11-15T14:42:24;22.73;;;11.98;;
53503;SDS011;39387;50.998;22.340;2022-11-15T14:44:52;25.17;;;13.23;;
53503;SDS011;39387;50.998;22.340;2022-11-15T14:47:19;24.80;;;13.73;;
53503;SDS011;39387;50.998;22.340;2022-11-15T14:49:47;27.30;;;12.93;;
53503;SDS011;39387;50.998;22.340;2022-11-15T14:52:19;29.33;;;13.27;;
53503;SDS011;39387;50.998;22.340;2022-11-15T14:54:53;25.63;;;13.10;;
53503;SDS011;39387;50.998;22.340;2022-11-15T14:57:20;31.80;;;15.70;;
53503;SDS011;39387;50.998;22.340;2022-11-15T14:59:48;31.08;;;14.82;;
53503;SDS011;39387;50.998;22.340;2022-11-15T15:02:17;33.83;;;15.07;;
53503;SDS011;39387;50.998;22.340;2022-11-15T15:04:46;34.65;;;15.98;;
53503;SDS011;39387;50.998;22.340;2022-11-15T15:07:13;33.63;;;16.73;;
53503;SDS011;39387;50.998;22.340;2022-11-15T15:09:41;33.03;;;15.07;;
53503;SDS011;39387;50.998;22.340;2022-11-15T15:12:15;36.65;;;17.30;;
53503;SDS011;39387;50.998;22.340;2022-11-15T15:14:44;37.35;;;16.80;;